createdAt,value
2019-02-15T00:01:42.622Z,2.33
2019-02-15T00:04:11.909Z,2.10
2019-02-15T00:06:41.198Z,1.80
2019-02-15T00:09:10.612Z,2.13
2019-02-15T00:11:39.898Z,1.93
2019-02-15T00:14:09.449Z,1.98
2019-02-15T00:16:38.736Z,1.80
2019-02-15T00:19:46.313Z,2.03
2019-02-15T00:22:15.602Z,1.97
2019-02-15T00:24:44.910Z,2.17
2019-02-15T00:27:14.229Z,1.97
2019-02-15T00:29:45.917Z,1.93
2019-02-15T00:32:15.523Z,1.80
2019-02-15T00:34:44.850Z,2.17
2019-02-15T00:37:14.441Z,1.60
2019-02-15T00:39:43.719Z,2.10
2019-02-15T00:42:13.002Z,1.87
2019-02-15T00:44:42.287Z,1.93
2019-02-15T00:47:30.575Z,1.80
2019-02-15T00:50:30.751Z,2.27
2019-02-15T00:53:25.183Z,2.67
2019-02-15T00:56:16.246Z,2.37
2019-02-15T00:59:01.855Z,3.00
2019-02-15T01:01:38.127Z,2.67
2019-02-15T01:04:13.050Z,2.00
2019-02-15T01:06:53.511Z,2.70
2019-02-15T01:09:45.821Z,2.83
2019-02-15T01:12:19.033Z,2.45
2019-02-15T01:14:48.323Z,2.70
2019-02-15T01:17:17.601Z,2.90
2019-02-15T01:19:46.889Z,4.17
2019-02-15T01:22:16.444Z,3.30
2019-02-15T01:24:45.786Z,3.50
2019-02-15T01:27:29.742Z,3.50
2019-02-15T01:30:20.758Z,2.90
2019-02-15T01:33:00.831Z,3.47
2019-02-15T01:35:49.130Z,3.23
2019-02-15T01:38:36.235Z,3.10
2019-02-15T01:41:30.569Z,3.40
2019-02-15T01:44:16.632Z,2.90
2019-02-15T01:47:13.760Z,3.40
2019-02-15T01:49:43.185Z,3.40
2019-02-15T01:52:12.722Z,3.50
2019-02-15T01:54:41.992Z,3.03
2019-02-15T01:57:13.666Z,3.10
2019-02-15T01:59:46.720Z,3.40
2019-02-15T02:02:16.038Z,3.27
2019-02-15T02:04:45.618Z,2.65
2019-02-15T02:07:15.198Z,2.90
2019-02-15T02:09:44.802Z,2.60
2019-02-15T02:12:14.205Z,2.10
2019-02-15T02:14:43.573Z,2.03
2019-02-15T02:17:12.846Z,2.13
2019-02-15T02:19:42.195Z,2.60
2019-02-15T02:22:11.591Z,2.42
2019-02-15T02:24:40.903Z,2.87
2019-02-15T02:27:10.192Z,2.30
2019-02-15T02:29:39.782Z,2.07
2019-02-15T02:32:09.082Z,2.67
2019-02-15T02:34:38.365Z,2.97
2019-02-15T02:37:07.641Z,2.20
2019-02-15T02:39:36.970Z,2.30
2019-02-15T02:42:06.241Z,2.60
2019-02-15T02:44:35.831Z,2.33
2019-02-15T02:47:05.105Z,2.50
2019-02-15T02:49:34.490Z,2.90
2019-02-15T02:52:03.781Z,2.80
2019-02-15T02:54:33.099Z,2.00
2019-02-15T02:57:02.624Z,2.35
2019-02-15T02:59:32.115Z,3.10
2019-02-15T03:02:05.151Z,1.70
2019-02-15T03:04:39.772Z,2.67
2019-02-15T03:07:11.505Z,2.80
2019-02-15T03:09:40.937Z,2.30
2019-02-15T03:12:10.261Z,2.33
2019-02-15T03:14:39.823Z,3.30
2019-02-15T03:17:09.133Z,2.83
2019-02-15T03:19:38.410Z,2.00
2019-02-15T03:22:07.718Z,2.00
2019-02-15T03:24:37.307Z,3.65
2019-02-15T03:27:06.585Z,2.40
2019-02-15T03:29:35.939Z,3.13
2019-02-15T03:32:05.285Z,2.57
2019-02-15T03:34:36.346Z,2.80
2019-02-15T03:37:28.534Z,2.40
2019-02-15T03:40:02.506Z,2.53
2019-02-15T03:42:32.127Z,2.05
2019-02-15T03:45:01.401Z,2.20
2019-02-15T03:47:30.952Z,2.33
2019-02-15T03:50:00.517Z,1.95
2019-02-15T03:52:30.056Z,3.27
2019-02-15T03:54:59.875Z,1.80
2019-02-15T03:57:29.468Z,2.15
2019-02-15T03:59:58.776Z,1.80
2019-02-15T04:02:28.131Z,1.70
2019-02-15T04:04:57.372Z,2.10
2019-02-15T04:07:27.196Z,2.42
2019-02-15T04:09:56.850Z,2.00
2019-02-15T04:12:26.123Z,1.97
2019-02-15T04:14:55.581Z,1.73
2019-02-15T04:17:24.873Z,2.03
2019-02-15T04:19:54.429Z,2.60
2019-02-15T04:22:23.765Z,1.70
2019-02-15T04:24:53.099Z,2.10
2019-02-15T04:27:23.974Z,2.60
2019-02-15T04:29:53.237Z,2.20
2019-02-15T04:32:22.532Z,2.57
2019-02-15T04:34:51.797Z,2.00
2019-02-15T04:37:21.115Z,1.77
2019-02-15T04:39:50.393Z,2.37
2019-02-15T04:42:20.027Z,2.35
2019-02-15T04:44:49.397Z,2.10
2019-02-15T04:47:18.682Z,1.37
2019-02-15T04:49:48.260Z,2.12
2019-02-15T04:52:17.784Z,2.40
2019-02-15T04:54:47.382Z,1.52
2019-02-15T04:57:16.668Z,2.70
2019-02-15T04:59:46.214Z,3.17
2019-02-15T05:02:15.850Z,4.35
2019-02-15T05:07:47.671Z,4.77
2019-02-15T05:10:20.206Z,4.50
2019-02-15T05:12:49.493Z,4.20
2019-02-15T05:15:19.085Z,3.75
2019-02-15T05:17:48.391Z,2.83
2019-02-15T05:20:17.725Z,3.47
2019-02-15T05:22:47.333Z,3.67
2019-02-15T05:25:16.601Z,3.80
2019-02-15T05:27:46.223Z,2.87
2019-02-15T05:30:15.520Z,3.50
2019-02-15T05:32:44.805Z,2.80
2019-02-15T05:35:14.088Z,3.50
2019-02-15T05:37:43.384Z,2.47
2019-02-15T05:40:12.701Z,1.97
2019-02-15T05:42:42.313Z,2.80
2019-02-15T05:45:11.610Z,2.80
2019-02-15T05:47:40.886Z,2.77
2019-02-15T05:50:10.169Z,3.00
2019-02-15T05:52:39.526Z,2.47
2019-02-15T05:55:08.836Z,1.92
2019-02-15T05:57:38.409Z,2.57
2019-02-15T06:00:08.569Z,2.10
2019-02-15T06:02:40.397Z,1.95
2019-02-15T06:05:09.705Z,2.80
2019-02-15T06:07:39.291Z,3.27
2019-02-15T06:10:08.773Z,3.80
2019-02-15T06:12:38.067Z,4.08
2019-02-15T06:15:14.882Z,4.20
2019-02-15T06:17:38.637Z,3.93
2019-02-15T06:20:08.409Z,3.98
2019-02-15T06:22:37.971Z,4.40
2019-02-15T06:25:07.569Z,4.35
2019-02-15T06:27:37.205Z,4.60
2019-02-15T06:30:07.104Z,5.45
2019-02-15T06:32:36.765Z,6.30
2019-02-15T06:35:06.492Z,5.30
2019-02-15T06:37:36.095Z,5.85
2019-02-15T06:40:05.453Z,6.07
2019-02-15T06:42:34.788Z,6.37
2019-02-15T06:45:06.227Z,6.30
2019-02-15T06:47:35.886Z,6.90
2019-02-15T06:50:05.670Z,7.25
2019-02-15T06:52:35.336Z,6.60
2019-02-15T06:55:04.768Z,8.33
2019-02-15T06:57:34.184Z,8.73
2019-02-15T07:00:22.350Z,11.77
2019-02-15T07:03:06.827Z,10.32
2019-02-15T07:05:36.480Z,8.05
2019-02-15T07:08:05.805Z,8.55
2019-02-15T07:10:35.088Z,9.93
2019-02-15T07:13:04.652Z,9.80
2019-02-15T07:15:34.151Z,8.20
2019-02-15T07:18:03.889Z,9.00
2019-02-15T07:20:33.155Z,9.00
2019-02-15T07:23:02.438Z,7.80
2019-02-15T07:25:31.721Z,7.57
2019-02-15T07:28:01.045Z,6.83
2019-02-15T07:30:30.354Z,6.93
2019-02-15T07:32:59.676Z,6.67
2019-02-15T07:35:29.108Z,7.62
2019-02-15T07:37:58.469Z,8.40
2019-02-15T07:40:27.768Z,11.07
2019-02-15T07:42:57.397Z,7.87
2019-02-15T07:45:26.708Z,10.47
2019-02-15T07:47:56.035Z,9.20
2019-02-15T07:50:25.629Z,10.27
2019-02-15T07:52:55.012Z,8.90
2019-02-15T07:55:24.305Z,7.70
2019-02-15T07:57:54.021Z,8.10
2019-02-15T08:00:23.357Z,7.70
2019-02-15T08:02:52.900Z,7.17
2019-02-15T08:05:23.523Z,8.60
2019-02-15T08:07:53.203Z,9.23
2019-02-15T08:10:22.536Z,10.03
2019-02-15T08:12:52.519Z,7.77
2019-02-15T08:15:22.785Z,7.70
2019-02-15T08:17:54.268Z,6.67
2019-02-15T08:20:23.939Z,8.20
2019-02-15T08:22:53.701Z,6.87
2019-02-15T08:25:23.025Z,7.63
2019-02-15T08:27:52.623Z,7.45
2019-02-15T08:30:22.250Z,9.90
2019-02-15T08:32:51.577Z,9.15
2019-02-15T08:35:21.276Z,8.17
2019-02-15T08:37:50.554Z,7.90
2019-02-15T08:40:20.173Z,8.70
2019-02-15T08:42:50.017Z,9.00
2019-02-15T08:45:20.319Z,8.60
2019-02-15T08:47:51.359Z,8.70
2019-02-15T08:50:22.889Z,8.07
2019-02-15T08:52:52.753Z,8.43
2019-02-15T08:55:23.950Z,7.90
2019-02-15T08:57:54.093Z,7.47
2019-02-15T09:00:23.862Z,7.43
2019-02-15T09:02:53.354Z,8.30
2019-02-15T09:05:22.911Z,7.07
2019-02-15T09:07:53.133Z,6.97
2019-02-15T09:10:23.626Z,8.37
2019-02-15T09:12:57.466Z,6.27
2019-02-15T09:15:28.948Z,7.00
2019-02-15T09:17:58.469Z,6.77
2019-02-15T09:20:30.242Z,6.30
2019-02-15T09:23:01.016Z,6.60
2019-02-15T09:25:30.419Z,7.17
2019-02-15T09:28:16.089Z,7.57
2019-02-15T09:30:50.920Z,6.10
2019-02-15T09:33:20.410Z,3.70
2019-02-15T09:35:51.523Z,5.33
2019-02-15T09:38:20.984Z,3.30
2019-02-15T09:40:50.696Z,3.22
2019-02-15T09:43:22.134Z,2.47
2019-02-15T09:45:51.515Z,2.57
2019-02-15T09:48:21.002Z,2.10
2019-02-15T09:50:50.435Z,2.73
2019-02-15T09:53:21.416Z,2.15
2019-02-15T09:55:51.195Z,2.60
2019-02-15T09:58:21.973Z,2.13
2019-02-15T10:00:51.541Z,1.90
2019-02-15T10:03:22.790Z,1.87
2019-02-15T10:05:52.570Z,1.50
2019-02-15T10:08:23.932Z,2.07
2019-02-15T10:10:53.381Z,1.63
2019-02-15T10:13:26.692Z,1.40
2019-02-15T10:15:57.946Z,1.83
2019-02-15T10:18:31.572Z,1.80
2019-02-15T10:21:01.313Z,1.37
2019-02-15T10:23:31.472Z,1.60
2019-02-15T10:26:01.674Z,2.30
2019-02-15T10:28:32.814Z,1.60
2019-02-15T10:31:02.289Z,1.80
2019-02-15T10:33:32.400Z,2.17
2019-02-15T10:36:01.892Z,2.13
2019-02-15T10:38:31.258Z,2.50
2019-02-15T10:41:00.909Z,2.30
2019-02-15T10:43:30.478Z,1.95
2019-02-15T10:45:59.778Z,2.20
2019-02-15T10:48:29.470Z,1.85
2019-02-15T10:50:59.109Z,2.50
2019-02-15T10:53:28.406Z,1.73
2019-02-15T10:55:57.801Z,2.37
2019-02-15T10:58:27.152Z,1.80
2019-02-15T11:00:56.434Z,1.97
2019-02-15T11:03:25.991Z,1.70
2019-02-15T11:05:55.605Z,1.87
2019-02-15T11:08:24.920Z,1.87
2019-02-15T11:10:54.513Z,1.63
2019-02-15T11:13:23.823Z,4.23
2019-02-15T11:15:53.169Z,2.00
2019-02-15T11:18:22.546Z,1.53
2019-02-15T11:20:52.090Z,1.83
2019-02-15T11:23:21.610Z,1.50
2019-02-15T11:25:50.977Z,1.10
2019-02-15T11:28:20.268Z,1.40
2019-02-15T11:30:49.557Z,1.20
2019-02-15T11:33:18.939Z,1.30
2019-02-15T11:35:48.223Z,1.33
2019-02-15T11:38:17.542Z,1.33
2019-02-15T11:40:46.898Z,1.70
2019-02-15T11:43:16.224Z,1.30
2019-02-15T11:45:45.525Z,1.33
2019-02-15T11:48:15.157Z,1.50
2019-02-15T11:50:44.521Z,1.80
2019-02-15T11:53:13.807Z,1.17
2019-02-15T11:55:43.377Z,1.40
2019-02-15T11:58:12.696Z,1.83
2019-02-15T12:00:42.011Z,1.50
2019-02-15T12:03:11.336Z,1.00
2019-02-15T12:05:40.630Z,1.43
2019-02-15T12:08:10.031Z,1.37
2019-02-15T12:10:39.426Z,1.50
2019-02-15T12:13:08.997Z,1.27
2019-02-15T12:15:38.304Z,0.93
2019-02-15T12:18:07.595Z,1.17
2019-02-15T12:20:37.019Z,1.37
2019-02-15T12:23:06.385Z,1.23
2019-02-15T12:25:36.117Z,1.22
2019-02-15T12:28:05.569Z,0.90
2019-02-15T12:30:35.038Z,1.63
2019-02-15T12:33:04.761Z,3.93
2019-02-15T12:35:34.184Z,2.50
2019-02-15T12:38:03.537Z,4.90
2019-02-15T12:40:32.821Z,3.00
2019-02-15T12:43:02.307Z,4.90
2019-02-15T12:45:31.801Z,5.43
2019-02-15T12:48:01.335Z,3.50
2019-02-15T12:50:30.761Z,3.53
2019-02-15T12:53:01.015Z,3.07
2019-02-15T12:55:30.341Z,3.87
2019-02-15T12:57:59.651Z,3.90
2019-02-15T13:00:29.195Z,4.72
2019-02-15T13:02:58.486Z,4.30
2019-02-15T13:05:27.772Z,4.10
2019-02-15T13:07:57.122Z,4.73
2019-02-15T13:10:28.190Z,4.20
2019-02-15T13:12:57.526Z,4.10
2019-02-15T13:15:26.841Z,4.63
2019-02-15T13:17:56.138Z,3.53
2019-02-15T13:20:25.930Z,3.63
2019-02-15T13:22:55.593Z,4.20
2019-02-15T13:25:25.334Z,3.30
2019-02-15T13:27:54.774Z,3.50
2019-02-15T13:30:24.055Z,3.80
2019-02-15T13:32:53.377Z,3.20
2019-02-15T13:35:23.346Z,3.50
2019-02-15T13:37:52.916Z,4.13
2019-02-15T13:40:22.190Z,4.07
2019-02-15T13:42:51.859Z,3.58
2019-02-15T13:45:21.184Z,3.23
2019-02-15T13:47:50.497Z,4.17
2019-02-15T13:50:19.858Z,3.90
2019-02-15T13:52:49.228Z,3.43
2019-02-15T13:55:18.627Z,3.47
2019-02-15T13:57:48.056Z,4.00
2019-02-15T14:00:17.370Z,3.33
2019-02-15T14:02:46.804Z,2.87
2019-02-15T14:05:16.306Z,3.30
2019-02-15T14:07:45.688Z,3.93
2019-02-15T14:10:15.044Z,4.17
2019-02-15T14:12:44.646Z,3.30
2019-02-15T14:15:14.063Z,4.33
2019-02-15T14:17:45.449Z,4.58
2019-02-15T14:20:14.746Z,4.50
2019-02-15T14:22:44.133Z,4.70
2019-02-15T14:25:13.460Z,4.37
2019-02-15T14:27:42.783Z,4.63
2019-02-15T14:30:14.916Z,4.80
2019-02-15T14:32:44.257Z,5.03
2019-02-15T14:35:14.375Z,4.00
2019-02-15T14:37:43.661Z,5.70
2019-02-15T14:40:12.785Z,6.63
2019-02-15T14:42:42.083Z,6.47
2019-02-15T14:45:11.583Z,7.20
2019-02-15T14:47:54.032Z,7.10
2019-02-15T14:50:15.188Z,6.87
2019-02-15T14:52:44.483Z,7.07
2019-02-15T14:55:13.764Z,5.20
2019-02-15T14:57:43.021Z,4.87
2019-02-15T15:00:12.847Z,4.67
2019-02-15T15:02:42.152Z,5.33
2019-02-15T15:05:11.987Z,4.87
2019-02-15T15:07:41.279Z,5.10
2019-02-15T15:10:10.582Z,4.07
2019-02-15T15:12:39.990Z,5.00
2019-02-15T15:15:11.688Z,5.00
2019-02-15T15:17:41.430Z,4.10
2019-02-15T15:20:11.446Z,4.00
2019-02-15T15:22:40.703Z,4.33
2019-02-15T15:25:10.709Z,5.20
2019-02-15T15:27:40.179Z,4.80
2019-02-15T15:30:10.931Z,4.10
2019-02-15T15:32:40.499Z,4.70
2019-02-15T15:35:09.895Z,4.60
2019-02-15T15:37:39.165Z,4.53
2019-02-15T15:40:09.984Z,5.47
2019-02-15T15:42:39.550Z,5.67
2019-02-15T15:45:09.785Z,5.22
2019-02-15T15:47:39.127Z,4.83
2019-02-15T15:50:09.250Z,5.70
2019-02-15T15:52:38.592Z,4.77
2019-02-15T15:55:08.673Z,5.37
2019-02-15T15:57:38.023Z,4.60
2019-02-15T16:00:09.536Z,5.30
2019-02-15T16:02:39.162Z,3.75
2019-02-15T16:05:09.122Z,4.27
2019-02-15T16:07:38.462Z,5.87
2019-02-15T16:10:09.309Z,3.90
2019-02-15T16:12:38.617Z,3.70
2019-02-15T16:15:09.000Z,5.17
2019-02-15T16:17:38.349Z,4.20
2019-02-15T16:20:08.614Z,3.90
2019-02-15T16:22:37.915Z,4.83
2019-02-15T16:25:07.399Z,4.50
2019-02-15T16:27:36.976Z,2.27
2019-02-15T16:30:07.332Z,1.20
2019-02-15T16:32:36.786Z,1.53
2019-02-15T16:35:06.365Z,0.90
2019-02-15T16:37:35.868Z,0.90
2019-02-15T16:40:05.727Z,1.03
2019-02-15T16:42:38.293Z,1.40
2019-02-15T16:45:09.075Z,1.90
2019-02-15T16:47:38.672Z,1.35
2019-02-15T16:50:08.377Z,1.67
2019-02-15T16:52:37.763Z,1.73
2019-02-15T16:55:12.791Z,1.40
2019-02-15T16:57:38.444Z,1.40
2019-02-15T17:00:08.114Z,1.50
2019-02-15T17:02:37.723Z,1.43
2019-02-15T17:05:07.487Z,1.30
2019-02-15T17:07:36.757Z,0.98
2019-02-15T17:10:06.739Z,0.97
2019-02-15T17:12:36.496Z,1.67
2019-02-15T17:15:06.139Z,1.23
2019-02-15T17:17:35.730Z,0.95
2019-02-15T17:20:05.134Z,1.70
2019-02-15T17:22:37.742Z,2.30
2019-02-15T17:25:08.317Z,1.30
2019-02-15T17:27:37.685Z,1.60
2019-02-15T17:30:07.380Z,1.73
2019-02-15T17:32:36.704Z,1.63
2019-02-15T17:35:06.720Z,1.63
2019-02-15T17:37:36.129Z,1.57
2019-02-15T17:40:06.017Z,1.90
2019-02-15T17:42:35.347Z,1.80
2019-02-15T17:45:05.029Z,1.90
2019-02-15T17:47:34.416Z,1.87
2019-02-15T17:51:03.045Z,1.77
2019-02-15T17:53:11.591Z,2.10
2019-02-15T17:55:40.909Z,1.90
2019-02-15T17:58:10.325Z,2.30
2019-02-15T18:00:39.774Z,2.70
2019-02-15T18:03:11.325Z,2.60
2019-02-15T18:05:45.698Z,2.27
2019-02-15T18:08:34.380Z,2.40
2019-02-15T18:11:26.999Z,2.53
2019-02-15T18:13:54.171Z,2.23
2019-02-15T18:16:45.400Z,2.57
2019-02-15T18:19:16.679Z,2.37
2019-02-15T18:21:49.123Z,2.20
2019-02-15T18:24:21.264Z,3.00
2019-02-15T18:26:53.695Z,4.37
2019-02-15T18:29:26.468Z,4.07
2019-02-15T18:31:57.083Z,4.30
2019-02-15T18:34:26.575Z,3.53
2019-02-15T18:37:05.996Z,2.97
2019-02-15T18:39:48.083Z,3.10
2019-02-15T18:42:26.916Z,3.83
2019-02-15T18:45:19.942Z,2.60
2019-02-15T18:48:11.919Z,3.20
2019-02-15T18:50:41.181Z,4.40
2019-02-15T18:53:20.939Z,4.20
2019-02-15T18:55:48.522Z,3.10
2019-02-15T18:58:22.072Z,3.50
2019-02-15T19:00:57.693Z,4.37
2019-02-15T19:03:29.145Z,3.90
2019-02-15T19:06:25.676Z,5.10
2019-02-15T19:09:03.816Z,5.90
2019-02-15T19:11:38.906Z,4.47
2019-02-15T19:14:30.345Z,5.33
2019-02-15T19:17:11.988Z,6.20
2019-02-15T19:19:57.939Z,5.40
2019-02-15T19:22:37.631Z,5.30
2019-02-15T19:26:21.162Z,5.70
2019-02-15T19:27:41.970Z,4.23
2019-02-15T19:30:25.230Z,4.80
2019-02-15T19:32:55.540Z,4.75
2019-02-15T19:35:38.081Z,4.97
2019-02-15T19:38:11.646Z,4.60
2019-02-15T19:40:58.174Z,4.37
2019-02-15T19:43:56.995Z,5.20
2019-02-15T19:46:37.985Z,4.47
2019-02-15T19:49:11.140Z,4.70
2019-02-15T19:51:45.933Z,4.50
2019-02-15T19:54:22.607Z,4.30
2019-02-15T19:56:56.167Z,3.40
2019-02-15T19:59:41.032Z,3.77
2019-02-15T20:02:21.730Z,3.30
2019-02-15T20:04:54.986Z,3.30
2019-02-15T20:07:37.516Z,3.53
2019-02-15T20:11:00.025Z,3.23
2019-02-15T20:13:15.755Z,4.20
2019-02-15T20:15:53.147Z,2.60
2019-02-15T20:18:34.424Z,3.43
2019-02-15T20:21:09.495Z,3.67
2019-02-15T20:24:06.599Z,3.17
2019-02-15T20:26:52.249Z,2.70
2019-02-15T20:29:39.486Z,2.60
2019-02-15T20:32:39.905Z,3.08
2019-02-15T20:35:33.659Z,3.50
2019-02-15T20:38:08.979Z,3.30
2019-02-15T20:40:46.820Z,3.17
2019-02-15T20:43:16.593Z,4.08
2019-02-15T20:45:52.205Z,3.73
2019-02-15T20:48:23.969Z,3.47
2019-02-15T20:51:05.135Z,3.83
2019-02-15T20:53:43.434Z,4.13
2019-02-15T20:56:24.918Z,3.70
2019-02-15T20:58:50.779Z,4.00
2019-02-15T21:01:34.645Z,4.20
2019-02-15T21:04:45.800Z,3.60
2019-02-15T21:07:12.739Z,3.80
2019-02-15T21:09:46.521Z,4.00
2019-02-15T21:12:21.852Z,3.90
2019-02-15T21:15:05.683Z,4.63
2019-02-15T21:17:39.953Z,3.77
2019-02-15T21:20:12.625Z,3.50
2019-02-15T21:22:42.382Z,3.22
2019-02-15T21:25:19.775Z,3.67
2019-02-15T21:27:51.424Z,4.17
2019-02-15T21:30:28.945Z,4.20
2019-02-15T21:33:11.546Z,3.90
2019-02-15T21:35:45.046Z,4.40
2019-02-15T21:38:21.735Z,4.10
2019-02-15T21:40:51.145Z,3.57
2019-02-15T21:43:20.704Z,4.10
2019-02-15T21:45:50.089Z,4.20
2019-02-15T21:48:22.269Z,4.13
2019-02-15T21:50:57.971Z,3.23
2019-02-15T21:53:36.751Z,3.70
2019-02-15T21:56:29.373Z,4.40
2019-02-15T21:58:56.753Z,3.53
2019-02-15T22:01:30.168Z,3.30
2019-02-15T22:04:11.668Z,4.57
2019-02-15T22:07:01.616Z,4.60
2019-02-15T22:09:27.794Z,3.40
2019-02-15T22:12:05.711Z,4.40
2019-02-15T22:14:36.766Z,4.27
2019-02-15T22:17:19.431Z,3.80
2019-02-15T22:19:51.795Z,6.00
2019-02-15T22:23:01.020Z,5.20
2019-02-15T22:25:17.191Z,5.53
2019-02-15T22:28:03.079Z,4.87
2019-02-15T22:30:41.613Z,6.17
2019-02-15T22:33:22.811Z,5.70
2019-02-15T22:35:52.530Z,6.13
2019-02-15T22:38:26.073Z,5.90
2019-02-15T22:41:37.275Z,4.80
2019-02-15T22:44:23.154Z,5.40
2019-02-15T22:47:03.093Z,4.07
2019-02-15T22:49:43.233Z,4.60
2019-02-15T22:52:45.484Z,5.70
2019-02-15T22:58:40.355Z,4.23
2019-02-15T23:01:36.846Z,4.50
2019-02-15T23:04:19.226Z,4.40
2019-02-15T23:06:51.608Z,4.33
2019-02-15T23:11:08.069Z,3.80
2019-02-15T23:12:14.080Z,3.70
2019-02-15T23:14:50.521Z,4.10
2019-02-15T23:17:30.369Z,4.00
2019-02-15T23:20:44.614Z,3.37
2019-02-15T23:23:40.776Z,4.30
2019-02-15T23:26:26.312Z,3.25
2019-02-15T23:28:53.324Z,3.03
2019-02-15T23:31:40.096Z,2.83
2019-02-15T23:34:04.830Z,3.30
2019-02-15T23:36:46.416Z,3.17
2019-02-15T23:39:15.818Z,2.90
2019-02-15T23:41:55.578Z,2.73
2019-02-15T23:44:25.097Z,2.77
2019-02-15T23:47:05.459Z,2.33
2019-02-15T23:49:37.857Z,2.90
2019-02-15T23:52:07.238Z,2.70
2019-02-15T23:54:36.831Z,3.40
2019-02-15T23:57:06.168Z,3.53
2019-02-15T23:59:35.793Z,3.00
